sensor_id;sensor_type;location;lat;lon;timestamp;temperature;humidity
25280;DHT22;13225;47.804;12.116;2022-10-14T00:00:19;12.30;99.90
25280;DHT22;13225;47.804;12.116;2022-10-14T00:02:45;12.30;99.90
25280;DHT22;13225;47.804;12.116;2022-10-14T00:05:10;12.30;99.90
25280;DHT22;13225;47.804;12.116;2022-10-14T00:07:37;12.30;99.90
25280;DHT22;13225;47.804;12.116;2022-10-14T00:10:04;12.30;99.90
25280;DHT22;13225;47.804;12.116;2022-10-14T00:12:31;12.30;99.90
25280;DHT22;13225;47.804;12.116;2022-10-14T00:14:57;12.30;99.90
25280;DHT22;13225;47.804;12.116;2022-10-14T00:17:23;12.30;99.90
25280;DHT22;13225;47.804;12.116;2022-10-14T00:19:49;12.30;99.90
25280;DHT22;13225;47.804;12.116;2022-10-14T00:22:14;12.30;99.90
25280;DHT22;13225;47.804;12.116;2022-10-14T00:24:40;12.30;99.90
25280;DHT22;13225;47.804;12.116;2022-10-14T00:27:05;12.30;99.90
25280;DHT22;13225;47.804;12.116;2022-10-14T00:29:31;12.20;99.90
25280;DHT22;13225;47.804;12.116;2022-10-14T00:31:57;12.20;99.90
25280;DHT22;13225;47.804;12.116;2022-10-14T00:34:22;12.20;99.90
25280;DHT22;13225;47.804;12.116;2022-10-14T00:36:48;12.10;99.90
25280;DHT22;13225;47.804;12.116;2022-10-14T00:39:14;12.10;99.90
25280;DHT22;13225;47.804;12.116;2022-10-14T00:41:43;12.20;99.90
25280;DHT22;13225;47.804;12.116;2022-10-14T00:46:39;12.10;99.90
25280;DHT22;13225;47.804;12.116;2022-10-14T00:49:12;12.10;99.90
25280;DHT22;13225;47.804;12.116;2022-10-14T00:51:39;12.10;99.90
25280;DHT22;13225;47.804;12.116;2022-10-14T00:54:05;12.10;99.90
25280;DHT22;13225;47.804;12.116;2022-10-14T00:56:32;12.10;99.90
25280;DHT22;13225;47.804;12.116;2022-10-14T00:58:59;12.10;99.90
25280;DHT22;13225;47.804;12.116;2022-10-14T01:01:27;12.10;99.90
25280;DHT22;13225;47.804;12.116;2022-10-14T01:03:52;12.10;99.90
25280;DHT22;13225;47.804;12.116;2022-10-14T01:12:35;12.10;99.90
25280;DHT22;13225;47.804;12.116;2022-10-14T01:18:25;12.10;99.90
25280;DHT22;13225;47.804;12.116;2022-10-14T01:27:03;12.30;99.90
25280;DHT22;13225;47.804;12.116;2022-10-14T01:32:20;12.20;99.90
25280;DHT22;13225;47.804;12.116;2022-10-14T01:35:23;12.20;99.90
25280;DHT22;13225;47.804;12.116;2022-10-14T01:37:57;12.10;99.90
25280;DHT22;13225;47.804;12.116;2022-10-14T01:43:32;12.10;99.90
25280;DHT22;13225;47.804;12.116;2022-10-14T01:46:02;12.10;99.90
25280;DHT22;13225;47.804;12.116;2022-10-14T01:48:32;12.10;99.90
25280;DHT22;13225;47.804;12.116;2022-10-14T01:51:01;12.10;99.90
25280;DHT22;13225;47.804;12.116;2022-10-14T01:53:41;12.20;99.90
25280;DHT22;13225;47.804;12.116;2022-10-14T01:56:08;12.20;99.90
25280;DHT22;13225;47.804;12.116;2022-10-14T01:58:36;12.20;99.90
25280;DHT22;13225;47.804;12.116;2022-10-14T02:01:05;12.20;99.90
25280;DHT22;13225;47.804;12.116;2022-10-14T02:03:44;12.20;99.90
25280;DHT22;13225;47.804;12.116;2022-10-14T02:06:33;12.20;99.90
25280;DHT22;13225;47.804;12.116;2022-10-14T02:09:08;12.10;99.90
25280;DHT22;13225;47.804;12.116;2022-10-14T02:11:48;12.10;99.90
25280;DHT22;13225;47.804;12.116;2022-10-14T02:14:42;12.10;99.90
25280;DHT22;13225;47.804;12.116;2022-10-14T02:17:16;12.10;99.90
25280;DHT22;13225;47.804;12.116;2022-10-14T02:19:54;12.10;99.90
25280;DHT22;13225;47.804;12.116;2022-10-14T02:22:28;12.10;99.90
25280;DHT22;13225;47.804;12.116;2022-10-14T02:24:59;12.10;99.90
25280;DHT22;13225;47.804;12.116;2022-10-14T02:27:27;12.10;99.90
25280;DHT22;13225;47.804;12.116;2022-10-14T02:29:54;12.10;99.90
25280;DHT22;13225;47.804;12.116;2022-10-14T02:32:23;12.10;99.90
25280;DHT22;13225;47.804;12.116;2022-10-14T02:34:52;12.00;99.90
25280;DHT22;13225;47.804;12.116;2022-10-14T02:37:20;12.00;99.90
25280;DHT22;13225;47.804;12.116;2022-10-14T02:39:59;12.00;99.90
25280;DHT22;13225;47.804;12.116;2022-10-14T02:42:27;11.90;99.90
25280;DHT22;13225;47.804;12.116;2022-10-14T02:44:58;11.90;99.90
25280;DHT22;13225;47.804;12.116;2022-10-14T02:47:25;11.90;99.90
25280;DHT22;13225;47.804;12.116;2022-10-14T02:49:51;11.90;99.90
25280;DHT22;13225;47.804;12.116;2022-10-14T02:52:17;11.90;99.90
25280;DHT22;13225;47.804;12.116;2022-10-14T02:54:43;11.80;99.90
25280;DHT22;13225;47.804;12.116;2022-10-14T02:57:08;11.80;99.90
25280;DHT22;13225;47.804;12.116;2022-10-14T02:59:34;11.80;99.90
25280;DHT22;13225;47.804;12.116;2022-10-14T03:02:00;11.80;99.90
25280;DHT22;13225;47.804;12.116;2022-10-14T03:04:25;11.80;99.90
25280;DHT22;13225;47.804;12.116;2022-10-14T03:06:51;11.80;99.90
25280;DHT22;13225;47.804;12.116;2022-10-14T03:09:18;11.90;99.90
25280;DHT22;13225;47.804;12.116;2022-10-14T03:11:44;11.80;99.90
25280;DHT22;13225;47.804;12.116;2022-10-14T03:14:09;11.80;99.90
25280;DHT22;13225;47.804;12.116;2022-10-14T03:16:35;11.70;99.90
25280;DHT22;13225;47.804;12.116;2022-10-14T03:19:00;11.80;99.90
25280;DHT22;13225;47.804;12.116;2022-10-14T03:21:26;11.70;99.90
25280;DHT22;13225;47.804;12.116;2022-10-14T03:23:51;11.80;99.90
25280;DHT22;13225;47.804;12.116;2022-10-14T03:26:17;11.70;99.90
25280;DHT22;13225;47.804;12.116;2022-10-14T03:28:43;11.80;99.90
25280;DHT22;13225;47.804;12.116;2022-10-14T03:31:09;11.80;99.90
25280;DHT22;13225;47.804;12.116;2022-10-14T03:33:34;11.80;99.90
25280;DHT22;13225;47.804;12.116;2022-10-14T03:36:00;11.70;99.90
25280;DHT22;13225;47.804;12.116;2022-10-14T03:38:25;11.80;99.90
25280;DHT22;13225;47.804;12.116;2022-10-14T03:40:51;11.70;99.90
25280;DHT22;13225;47.804;12.116;2022-10-14T03:43:17;11.80;99.90
25280;DHT22;13225;47.804;12.116;2022-10-14T03:45:44;11.80;99.90
25280;DHT22;13225;47.804;12.116;2022-10-14T03:48:10;11.70;99.90
25280;DHT22;13225;47.804;12.116;2022-10-14T03:50:35;11.70;99.90
25280;DHT22;13225;47.804;12.116;2022-10-14T03:53:01;11.70;99.90
25280;DHT22;13225;47.804;12.116;2022-10-14T03:55:27;11.70;99.90
25280;DHT22;13225;47.804;12.116;2022-10-14T03:57:52;11.70;99.90
25280;DHT22;13225;47.804;12.116;2022-10-14T04:00:18;11.70;99.90
25280;DHT22;13225;47.804;12.116;2022-10-14T04:02:44;11.70;99.90
25280;DHT22;13225;47.804;12.116;2022-10-14T04:05:10;11.70;99.90
25280;DHT22;13225;47.804;12.116;2022-10-14T04:07:35;11.70;99.90
25280;DHT22;13225;47.804;12.116;2022-10-14T04:10:01;11.60;99.90
25280;DHT22;13225;47.804;12.116;2022-10-14T04:12:27;11.60;99.90
25280;DHT22;13225;47.804;12.116;2022-10-14T04:14:53;11.60;99.90
25280;DHT22;13225;47.804;12.116;2022-10-14T04:17:23;11.60;99.90
25280;DHT22;13225;47.804;12.116;2022-10-14T04:19:49;11.60;99.90
25280;DHT22;13225;47.804;12.116;2022-10-14T04:22:15;11.60;99.90
25280;DHT22;13225;47.804;12.116;2022-10-14T04:24:41;11.60;99.90
25280;DHT22;13225;47.804;12.116;2022-10-14T04:27:06;11.60;99.90
25280;DHT22;13225;47.804;12.116;2022-10-14T04:29:32;11.60;99.90
25280;DHT22;13225;47.804;12.116;2022-10-14T04:31:57;11.70;99.90
25280;DHT22;13225;47.804;12.116;2022-10-14T04:34:23;11.70;99.90
25280;DHT22;13225;47.804;12.116;2022-10-14T04:36:49;11.60;99.90
25280;DHT22;13225;47.804;12.116;2022-10-14T04:39:14;11.60;99.90
25280;DHT22;13225;47.804;12.116;2022-10-14T04:41:40;11.60;99.90
25280;DHT22;13225;47.804;12.116;2022-10-14T04:44:06;11.60;99.90
25280;DHT22;13225;47.804;12.116;2022-10-14T04:46:32;11.70;99.90
25280;DHT22;13225;47.804;12.116;2022-10-14T04:48:57;11.70;99.90
25280;DHT22;13225;47.804;12.116;2022-10-14T04:51:23;11.60;99.90
25280;DHT22;13225;47.804;12.116;2022-10-14T04:53:49;11.50;99.90
25280;DHT22;13225;47.804;12.116;2022-10-14T04:56:14;11.60;99.90
25280;DHT22;13225;47.804;12.116;2022-10-14T04:58:40;11.60;99.90
25280;DHT22;13225;47.804;12.116;2022-10-14T05:01:06;11.60;99.90
25280;DHT22;13225;47.804;12.116;2022-10-14T05:03:31;11.60;99.90
25280;DHT22;13225;47.804;12.116;2022-10-14T05:05:57;11.60;99.90
25280;DHT22;13225;47.804;12.116;2022-10-14T05:08:23;11.60;99.90
25280;DHT22;13225;47.804;12.116;2022-10-14T05:10:48;11.60;99.90
25280;DHT22;13225;47.804;12.116;2022-10-14T05:13:14;11.60;99.90
25280;DHT22;13225;47.804;12.116;2022-10-14T05:15:40;11.60;99.90
25280;DHT22;13225;47.804;12.116;2022-10-14T05:18:12;11.60;99.90
25280;DHT22;13225;47.804;12.116;2022-10-14T05:20:38;11.60;99.90
25280;DHT22;13225;47.804;12.116;2022-10-14T05:23:04;11.60;99.90
25280;DHT22;13225;47.804;12.116;2022-10-14T05:25:30;11.60;99.90
25280;DHT22;13225;47.804;12.116;2022-10-14T05:27:56;11.70;99.90
25280;DHT22;13225;47.804;12.116;2022-10-14T05:30:22;11.60;99.90
25280;DHT22;13225;47.804;12.116;2022-10-14T05:32:48;11.60;99.90
25280;DHT22;13225;47.804;12.116;2022-10-14T05:35:13;11.60;99.90
25280;DHT22;13225;47.804;12.116;2022-10-14T05:37:39;11.70;99.90
25280;DHT22;13225;47.804;12.116;2022-10-14T05:40:05;11.60;99.90
25280;DHT22;13225;47.804;12.116;2022-10-14T05:42:31;11.60;99.90
25280;DHT22;13225;47.804;12.116;2022-10-14T05:44:57;11.60;99.90
25280;DHT22;13225;47.804;12.116;2022-10-14T05:47:22;11.50;99.90
25280;DHT22;13225;47.804;12.116;2022-10-14T05:49:48;11.50;99.90
25280;DHT22;13225;47.804;12.116;2022-10-14T05:52:14;11.50;99.90
25280;DHT22;13225;47.804;12.116;2022-10-14T05:54:39;11.50;99.90
25280;DHT22;13225;47.804;12.116;2022-10-14T05:57:05;11.50;99.90
25280;DHT22;13225;47.804;12.116;2022-10-14T05:59:31;11.50;99.90
25280;DHT22;13225;47.804;12.116;2022-10-14T06:01:59;11.60;99.90
25280;DHT22;13225;47.804;12.116;2022-10-14T06:04:26;11.60;99.90
25280;DHT22;13225;47.804;12.116;2022-10-14T06:06:51;11.60;99.90
25280;DHT22;13225;47.804;12.116;2022-10-14T06:09:17;11.70;99.90
25280;DHT22;13225;47.804;12.116;2022-10-14T06:11:43;11.70;99.90
25280;DHT22;13225;47.804;12.116;2022-10-14T06:14:09;11.70;99.90
25280;DHT22;13225;47.804;12.116;2022-10-14T06:16:35;11.80;99.90
25280;DHT22;13225;47.804;12.116;2022-10-14T06:19:00;11.90;99.90
25280;DHT22;13225;47.804;12.116;2022-10-14T06:21:26;11.90;99.90
25280;DHT22;13225;47.804;12.116;2022-10-14T06:23:52;12.00;99.90
25280;DHT22;13225;47.804;12.116;2022-10-14T06:26:17;12.00;99.90
25280;DHT22;13225;47.804;12.116;2022-10-14T06:28:43;12.00;99.90
25280;DHT22;13225;47.804;12.116;2022-10-14T06:31:09;12.00;99.90
25280;DHT22;13225;47.804;12.116;2022-10-14T06:33:34;12.10;99.90
25280;DHT22;13225;47.804;12.116;2022-10-14T06:36:01;12.10;99.90
25280;DHT22;13225;47.804;12.116;2022-10-14T06:38:27;12.10;99.90
25280;DHT22;13225;47.804;12.116;2022-10-14T06:40:53;12.10;99.90
25280;DHT22;13225;47.804;12.116;2022-10-14T06:43:20;12.20;99.90
25280;DHT22;13225;47.804;12.116;2022-10-14T06:45:46;12.20;99.90
25280;DHT22;13225;47.804;12.116;2022-10-14T06:48:12;12.30;99.90
25280;DHT22;13225;47.804;12.116;2022-10-14T06:50:38;12.30;99.90
25280;DHT22;13225;47.804;12.116;2022-10-14T06:53:04;12.30;99.90
25280;DHT22;13225;47.804;12.116;2022-10-14T06:55:29;12.40;99.90
25280;DHT22;13225;47.804;12.116;2022-10-14T06:57:55;12.40;99.90
25280;DHT22;13225;47.804;12.116;2022-10-14T07:00:20;12.40;99.90
25280;DHT22;13225;47.804;12.116;2022-10-14T07:02:46;12.50;99.90
25280;DHT22;13225;47.804;12.116;2022-10-14T07:05:12;12.60;99.90
25280;DHT22;13225;47.804;12.116;2022-10-14T07:07:38;12.60;99.90
25280;DHT22;13225;47.804;12.116;2022-10-14T07:10:03;12.70;99.90
25280;DHT22;13225;47.804;12.116;2022-10-14T07:12:29;12.80;99.90
25280;DHT22;13225;47.804;12.116;2022-10-14T07:14:55;12.80;99.90
25280;DHT22;13225;47.804;12.116;2022-10-14T07:17:21;12.80;99.90
25280;DHT22;13225;47.804;12.116;2022-10-14T07:19:47;12.80;99.90
25280;DHT22;13225;47.804;12.116;2022-10-14T07:22:13;12.80;99.90
25280;DHT22;13225;47.804;12.116;2022-10-14T07:24:41;12.90;99.90
25280;DHT22;13225;47.804;12.116;2022-10-14T07:27:08;13.00;99.90
25280;DHT22;13225;47.804;12.116;2022-10-14T07:29:34;13.00;99.90
25280;DHT22;13225;47.804;12.116;2022-10-14T07:31:59;13.00;99.90
25280;DHT22;13225;47.804;12.116;2022-10-14T07:34:25;13.00;99.90
25280;DHT22;13225;47.804;12.116;2022-10-14T07:36:50;13.00;99.90
25280;DHT22;13225;47.804;12.116;2022-10-14T07:39:16;13.00;99.90
25280;DHT22;13225;47.804;12.116;2022-10-14T07:41:42;13.00;99.90
25280;DHT22;13225;47.804;12.116;2022-10-14T07:44:07;13.10;99.90
25280;DHT22;13225;47.804;12.116;2022-10-14T07:46:37;13.10;99.90
25280;DHT22;13225;47.804;12.116;2022-10-14T07:49:06;13.20;99.90
25280;DHT22;13225;47.804;12.116;2022-10-14T07:51:33;13.20;99.90
25280;DHT22;13225;47.804;12.116;2022-10-14T07:54:00;13.40;99.90
25280;DHT22;13225;47.804;12.116;2022-10-14T07:56:26;13.50;99.90
25280;DHT22;13225;47.804;12.116;2022-10-14T07:58:52;13.60;99.90
25280;DHT22;13225;47.804;12.116;2022-10-14T08:01:18;13.70;99.90
25280;DHT22;13225;47.804;12.116;2022-10-14T08:03:44;13.90;99.90
25280;DHT22;13225;47.804;12.116;2022-10-14T08:06:11;14.00;99.90
25280;DHT22;13225;47.804;12.116;2022-10-14T08:08:37;14.00;99.90
25280;DHT22;13225;47.804;12.116;2022-10-14T08:11:08;14.00;99.90
25280;DHT22;13225;47.804;12.116;2022-10-14T08:13:35;14.00;99.90
25280;DHT22;13225;47.804;12.116;2022-10-14T08:16:01;14.00;99.90
25280;DHT22;13225;47.804;12.116;2022-10-14T08:18:27;13.90;99.90
25280;DHT22;13225;47.804;12.116;2022-10-14T08:20:53;13.80;99.90
25280;DHT22;13225;47.804;12.116;2022-10-14T08:23:19;13.80;99.90
25280;DHT22;13225;47.804;12.116;2022-10-14T08:25:47;13.80;99.90
25280;DHT22;13225;47.804;12.116;2022-10-14T08:28:13;13.80;99.90
25280;DHT22;13225;47.804;12.116;2022-10-14T08:30:38;13.90;99.90
25280;DHT22;13225;47.804;12.116;2022-10-14T08:33:05;14.10;99.90
25280;DHT22;13225;47.804;12.116;2022-10-14T08:35:31;14.20;99.90
25280;DHT22;13225;47.804;12.116;2022-10-14T08:37:58;14.30;99.90
25280;DHT22;13225;47.804;12.116;2022-10-14T08:40:26;14.50;99.90
25280;DHT22;13225;47.804;12.116;2022-10-14T08:45:54;14.60;99.90
25280;DHT22;13225;47.804;12.116;2022-10-14T08:48:23;14.70;99.90
25280;DHT22;13225;47.804;12.116;2022-10-14T08:50:58;14.80;99.90
25280;DHT22;13225;47.804;12.116;2022-10-14T08:53:31;14.90;99.90
25280;DHT22;13225;47.804;12.116;2022-10-14T08:55:59;14.90;99.90
25280;DHT22;13225;47.804;12.116;2022-10-14T08:58:44;15.10;99.90
25280;DHT22;13225;47.804;12.116;2022-10-14T09:01:25;15.10;99.90
25280;DHT22;13225;47.804;12.116;2022-10-14T09:04:06;15.20;99.90
25280;DHT22;13225;47.804;12.116;2022-10-14T09:06:34;15.20;99.90
25280;DHT22;13225;47.804;12.116;2022-10-14T09:09:24;15.10;99.90
25280;DHT22;13225;47.804;12.116;2022-10-14T09:11:57;15.00;99.90
25280;DHT22;13225;47.804;12.116;2022-10-14T09:14:33;14.80;99.90
25280;DHT22;13225;47.804;12.116;2022-10-14T09:17:16;14.60;99.90
25280;DHT22;13225;47.804;12.116;2022-10-14T09:19:55;14.70;99.90
25280;DHT22;13225;47.804;12.116;2022-10-14T09:22:26;14.90;99.90
25280;DHT22;13225;47.804;12.116;2022-10-14T09:24:52;15.10;99.90
25280;DHT22;13225;47.804;12.116;2022-10-14T09:27:20;15.20;99.90
25280;DHT22;13225;47.804;12.116;2022-10-14T09:29:50;15.20;99.90
25280;DHT22;13225;47.804;12.116;2022-10-14T09:32:27;15.40;99.90
25280;DHT22;13225;47.804;12.116;2022-10-14T09:34:54;15.50;99.90
25280;DHT22;13225;47.804;12.116;2022-10-14T09:37:34;15.70;99.90
25280;DHT22;13225;47.804;12.116;2022-10-14T09:46:00;15.80;99.90
25280;DHT22;13225;47.804;12.116;2022-10-14T09:48:46;15.80;99.90
25280;DHT22;13225;47.804;12.116;2022-10-14T09:53:57;16.00;99.90
25280;DHT22;13225;47.804;12.116;2022-10-14T09:56:33;16.20;99.90
25280;DHT22;13225;47.804;12.116;2022-10-14T09:59:01;16.20;99.90
25280;DHT22;13225;47.804;12.116;2022-10-14T10:01:34;16.30;99.90
25280;DHT22;13225;47.804;12.116;2022-10-14T10:06:58;16.40;99.90
25280;DHT22;13225;47.804;12.116;2022-10-14T10:09:25;16.40;99.90
25280;DHT22;13225;47.804;12.116;2022-10-14T10:11:51;16.50;99.90
25280;DHT22;13225;47.804;12.116;2022-10-14T10:14:32;16.70;99.90
25280;DHT22;13225;47.804;12.116;2022-10-14T10:19:46;16.70;99.90
25280;DHT22;13225;47.804;12.116;2022-10-14T10:22:24;16.90;99.90
25280;DHT22;13225;47.804;12.116;2022-10-14T10:27:27;17.00;99.90
25280;DHT22;13225;47.804;12.116;2022-10-14T10:29:54;17.30;99.90
25280;DHT22;13225;47.804;12.116;2022-10-14T10:41:13;17.70;99.90
25280;DHT22;13225;47.804;12.116;2022-10-14T10:52:58;18.30;99.90
25280;DHT22;13225;47.804;12.116;2022-10-14T10:55:37;18.30;99.90
25280;DHT22;13225;47.804;12.116;2022-10-14T10:58:24;18.30;99.90
25280;DHT22;13225;47.804;12.116;2022-10-14T11:03:55;18.70;99.90
25280;DHT22;13225;47.804;12.116;2022-10-14T11:06:33;18.70;99.90
25280;DHT22;13225;47.804;12.116;2022-10-14T11:09:25;18.80;99.90
25280;DHT22;13225;47.804;12.116;2022-10-14T11:12:21;18.80;99.90
25280;DHT22;13225;47.804;12.116;2022-10-14T11:14:55;19.00;99.90
25280;DHT22;13225;47.804;12.116;2022-10-14T11:17:35;19.00;99.90
25280;DHT22;13225;47.804;12.116;2022-10-14T11:25:52;19.50;99.90
25280;DHT22;13225;47.804;12.116;2022-10-14T11:40:26;19.40;99.90
25280;DHT22;13225;47.804;12.116;2022-10-14T11:43:06;19.40;99.90
25280;DHT22;13225;47.804;12.116;2022-10-14T11:45:38;19.70;99.90
25280;DHT22;13225;47.804;12.116;2022-10-14T11:48:17;19.80;99.90
25280;DHT22;13225;47.804;12.116;2022-10-14T11:50:46;19.90;99.90
25280;DHT22;13225;47.804;12.116;2022-10-14T11:59:36;20.30;99.90
25280;DHT22;13225;47.804;12.116;2022-10-14T12:05:19;20.90;99.90
25280;DHT22;13225;47.804;12.116;2022-10-14T12:11:03;20.80;99.90
25280;DHT22;13225;47.804;12.116;2022-10-14T12:13:43;20.70;99.90
25280;DHT22;13225;47.804;12.116;2022-10-14T12:16:21;20.50;99.90
25280;DHT22;13225;47.804;12.116;2022-10-14T12:18:51;20.50;99.90
25280;DHT22;13225;47.804;12.116;2022-10-14T12:21:42;20.40;99.90
25280;DHT22;13225;47.804;12.116;2022-10-14T12:24:18;21.20;99.90
25280;DHT22;13225;47.804;12.116;2022-10-14T12:26:56;21.20;99.90
25280;DHT22;13225;47.804;12.116;2022-10-14T12:29:26;20.20;99.90
25280;DHT22;13225;47.804;12.116;2022-10-14T12:34:42;20.60;99.90
25280;DHT22;13225;47.804;12.116;2022-10-14T12:39:53;20.50;99.90
25280;DHT22;13225;47.804;12.116;2022-10-14T12:42:19;20.60;99.90
25280;DHT22;13225;47.804;12.116;2022-10-14T12:44:52;20.40;99.90
25280;DHT22;13225;47.804;12.116;2022-10-14T12:47:29;20.20;99.90
25280;DHT22;13225;47.804;12.116;2022-10-14T12:49:59;20.10;99.90
25280;DHT22;13225;47.804;12.116;2022-10-14T12:52:32;19.90;99.90
25280;DHT22;13225;47.804;12.116;2022-10-14T12:55:00;19.60;99.90
25280;DHT22;13225;47.804;12.116;2022-10-14T12:57:34;19.50;99.90
25280;DHT22;13225;47.804;12.116;2022-10-14T13:02:54;19.70;99.90
25280;DHT22;13225;47.804;12.116;2022-10-14T13:08:25;19.70;99.90
25280;DHT22;13225;47.804;12.116;2022-10-14T13:16:09;19.80;99.90
25280;DHT22;13225;47.804;12.116;2022-10-14T13:21:09;19.60;99.90
25280;DHT22;13225;47.804;12.116;2022-10-14T13:23:45;19.50;99.90
25280;DHT22;13225;47.804;12.116;2022-10-14T13:29:08;19.30;99.90
25280;DHT22;13225;47.804;12.116;2022-10-14T13:32:05;19.00;99.90
25280;DHT22;13225;47.804;12.116;2022-10-14T13:37:33;18.70;99.90
25280;DHT22;13225;47.804;12.116;2022-10-14T13:42:40;18.50;99.90
25280;DHT22;13225;47.804;12.116;2022-10-14T13:45:11;18.50;99.90
25280;DHT22;13225;47.804;12.116;2022-10-14T13:47:44;18.70;99.90
25280;DHT22;13225;47.804;12.116;2022-10-14T13:50:21;18.80;99.90
25280;DHT22;13225;47.804;12.116;2022-10-14T13:52:58;18.80;99.90
25280;DHT22;13225;47.804;12.116;2022-10-14T13:55:25;18.90;99.90
25280;DHT22;13225;47.804;12.116;2022-10-14T13:58:12;18.70;99.90
25280;DHT22;13225;47.804;12.116;2022-10-14T14:01:23;18.50;99.90
25280;DHT22;13225;47.804;12.116;2022-10-14T14:03:33;18.70;99.90
25280;DHT22;13225;47.804;12.116;2022-10-14T14:06:00;18.70;99.90
25280;DHT22;13225;47.804;12.116;2022-10-14T14:08:30;18.60;99.90
25280;DHT22;13225;47.804;12.116;2022-10-14T14:11:01;18.60;99.90
25280;DHT22;13225;47.804;12.116;2022-10-14T14:13:31;18.60;99.90
25280;DHT22;13225;47.804;12.116;2022-10-14T14:15:58;18.30;99.90
25280;DHT22;13225;47.804;12.116;2022-10-14T14:18:35;18.00;99.90
25280;DHT22;13225;47.804;12.116;2022-10-14T14:21:02;17.80;99.90
25280;DHT22;13225;47.804;12.116;2022-10-14T14:23:29;17.80;99.90
25280;DHT22;13225;47.804;12.116;2022-10-14T14:25:55;17.70;99.90
25280;DHT22;13225;47.804;12.116;2022-10-14T14:28:30;17.80;99.90
25280;DHT22;13225;47.804;12.116;2022-10-14T14:30:56;17.80;99.90
25280;DHT22;13225;47.804;12.116;2022-10-14T14:33:30;17.80;99.90
25280;DHT22;13225;47.804;12.116;2022-10-14T14:36:06;17.80;99.90
25280;DHT22;13225;47.804;12.116;2022-10-14T14:38:37;17.70;99.90
25280;DHT22;13225;47.804;12.116;2022-10-14T14:41:16;17.60;99.90
25280;DHT22;13225;47.804;12.116;2022-10-14T14:43:42;17.50;99.90
25280;DHT22;13225;47.804;12.116;2022-10-14T14:46:19;17.50;99.90
25280;DHT22;13225;47.804;12.116;2022-10-14T14:48:51;17.60;99.90
25280;DHT22;13225;47.804;12.116;2022-10-14T14:51:18;17.70;99.90
25280;DHT22;13225;47.804;12.116;2022-10-14T14:53:49;17.80;99.90
25280;DHT22;13225;47.804;12.116;2022-10-14T14:56:22;17.60;99.90
25280;DHT22;13225;47.804;12.116;2022-10-14T14:58:49;17.40;99.90
25280;DHT22;13225;47.804;12.116;2022-10-14T15:01:34;17.50;99.90
25280;DHT22;13225;47.804;12.116;2022-10-14T15:04:05;17.50;99.90
25280;DHT22;13225;47.804;12.116;2022-10-14T15:06:33;17.60;99.90
25280;DHT22;13225;47.804;12.116;2022-10-14T15:09:09;17.60;99.90
25280;DHT22;13225;47.804;12.116;2022-10-14T15:11:49;17.30;99.90
25280;DHT22;13225;47.804;12.116;2022-10-14T15:14:38;17.10;99.90
25280;DHT22;13225;47.804;12.116;2022-10-14T15:17:37;17.10;99.90
25280;DHT22;13225;47.804;12.116;2022-10-14T15:25:00;16.80;99.90
25280;DHT22;13225;47.804;12.116;2022-10-14T15:27:50;16.70;99.90
25280;DHT22;13225;47.804;12.116;2022-10-14T15:30:20;16.50;99.90
25280;DHT22;13225;47.804;12.116;2022-10-14T15:32:54;16.50;99.90
25280;DHT22;13225;47.804;12.116;2022-10-14T15:35:21;16.50;99.90
25280;DHT22;13225;47.804;12.116;2022-10-14T15:37:48;16.50;99.90
25280;DHT22;13225;47.804;12.116;2022-10-14T15:40:21;16.40;99.90
25280;DHT22;13225;47.804;12.116;2022-10-14T15:42:48;16.50;99.90
25280;DHT22;13225;47.804;12.116;2022-10-14T15:45:14;16.50;99.90
25280;DHT22;13225;47.804;12.116;2022-10-14T15:47:40;16.40;99.90
25280;DHT22;13225;47.804;12.116;2022-10-14T15:50:15;16.30;99.90
25280;DHT22;13225;47.804;12.116;2022-10-14T15:52:41;16.20;99.90
25280;DHT22;13225;47.804;12.116;2022-10-14T15:55:25;16.20;99.90
25280;DHT22;13225;47.804;12.116;2022-10-14T15:57:51;16.10;99.90
25280;DHT22;13225;47.804;12.116;2022-10-14T16:00:19;16.10;99.90
25280;DHT22;13225;47.804;12.116;2022-10-14T16:02:47;16.10;99.90
25280;DHT22;13225;47.804;12.116;2022-10-14T16:05:14;16.00;99.90
25280;DHT22;13225;47.804;12.116;2022-10-14T16:07:39;15.90;99.90
25280;DHT22;13225;47.804;12.116;2022-10-14T16:10:07;15.90;99.90
25280;DHT22;13225;47.804;12.116;2022-10-14T16:12:33;15.80;99.90
25280;DHT22;13225;47.804;12.116;2022-10-14T16:14:59;15.70;99.90
25280;DHT22;13225;47.804;12.116;2022-10-14T16:17:26;15.70;99.90
25280;DHT22;13225;47.804;12.116;2022-10-14T16:19:52;15.60;99.90
25280;DHT22;13225;47.804;12.116;2022-10-14T16:22:18;15.60;99.90
25280;DHT22;13225;47.804;12.116;2022-10-14T16:24:43;15.60;99.90
25280;DHT22;13225;47.804;12.116;2022-10-14T16:27:09;15.60;99.90
25280;DHT22;13225;47.804;12.116;2022-10-14T16:29:35;15.60;99.90
25280;DHT22;13225;47.804;12.116;2022-10-14T16:32:01;15.50;99.90
25280;DHT22;13225;47.804;12.116;2022-10-14T16:34:26;15.50;99.90
25280;DHT22;13225;47.804;12.116;2022-10-14T16:36:52;15.50;99.90
25280;DHT22;13225;47.804;12.116;2022-10-14T16:39:18;15.40;99.90
25280;DHT22;13225;47.804;12.116;2022-10-14T16:41:44;15.30;99.90
25280;DHT22;13225;47.804;12.116;2022-10-14T16:44:10;15.20;99.90
25280;DHT22;13225;47.804;12.116;2022-10-14T16:46:57;15.20;99.90
25280;DHT22;13225;47.804;12.116;2022-10-14T16:49:46;15.10;99.90
25280;DHT22;13225;47.804;12.116;2022-10-14T16:52:14;15.10;99.90
25280;DHT22;13225;47.804;12.116;2022-10-14T16:54:40;15.10;99.90
25280;DHT22;13225;47.804;12.116;2022-10-14T16:57:06;15.00;99.90
25280;DHT22;13225;47.804;12.116;2022-10-14T16:59:31;15.00;99.90
25280;DHT22;13225;47.804;12.116;2022-10-14T17:01:57;15.00;99.90
25280;DHT22;13225;47.804;12.116;2022-10-14T17:04:23;15.00;99.90
25280;DHT22;13225;47.804;12.116;2022-10-14T17:06:49;15.00;99.90
25280;DHT22;13225;47.804;12.116;2022-10-14T17:09:15;15.00;99.90
25280;DHT22;13225;47.804;12.116;2022-10-14T17:11:43;15.00;99.90
25280;DHT22;13225;47.804;12.116;2022-10-14T17:14:11;14.90;99.90
25280;DHT22;13225;47.804;12.116;2022-10-14T17:16:37;14.90;99.90
25280;DHT22;13225;47.804;12.116;2022-10-14T17:19:03;14.90;99.90
25280;DHT22;13225;47.804;12.116;2022-10-14T17:21:29;15.00;99.90
25280;DHT22;13225;47.804;12.116;2022-10-14T17:23:58;14.90;99.90
25280;DHT22;13225;47.804;12.116;2022-10-14T17:26:27;14.90;99.90
25280;DHT22;13225;47.804;12.116;2022-10-14T17:28:55;14.90;99.90
25280;DHT22;13225;47.804;12.116;2022-10-14T17:31:21;14.80;99.90
25280;DHT22;13225;47.804;12.116;2022-10-14T17:33:48;14.80;99.90
25280;DHT22;13225;47.804;12.116;2022-10-14T17:36:23;14.80;99.90